»·PEaware :: CGOUP KBZN-KGEG

CGOUP :: KBZN-KGEG

FLIGHT INFORMATION

Flight Status: Arrived
Operator: Unknown
More flights by this operator :: More flights under this callsign
Pilot: Konrad W. (32064)
Aircraft: Cessna 700 Citation Longitude
(C700)
More flights by this aircraft type
Origin: KBZN Gallatin
United States
Destination: KGEG Spokane Intl
United States
More flights between these airports :: More routes between these airports
Route: +TEERX4 HIA V86 MSO V2 MLP HILIE2
File this flight plan on PilotEdge
Remarks:
Altitude:
(Current/Filed)
16,000ft
Speed:
(Current/Filed)
400kts
Departed: 22-Nov-20 08:31 AM
Arrived: 22-Nov-20 09:35 AM
Distance/Time
Traveled:
285nm/1:04
Distance/Time
To Go:
Arrived

Flight Plot

Page will automatically refresh every two minutes.

Flight plan parsing failed; only flown route is shown


Map Options




Map Legend


Flown Route
Filed Route
Departure Airport
Arrival Airport
Navaid (VOR, NDB)
Fix

Horizontal Profiles

Position Reports

Time Latitude Longitude Heading Altitude Ground
Speed
22-Nov-20 08:02 45.773540 -111.153008 252 4459ft 0kts
22-Nov-20 08:03 45.773540 -111.153008 252 4459ft 0kts
22-Nov-20 08:05 45.773540 -111.153008 252 4459ft 0kts
22-Nov-20 08:05 45.773540 -111.153008 252 4459ft 0kts
22-Nov-20 08:06 45.773540 -111.153008 252 4459ft 0kts
22-Nov-20 08:07 45.773540 -111.153008 252 4459ft 0kts
22-Nov-20 08:08 45.773540 -111.153008 252 4459ft 0kts
22-Nov-20 08:09 45.773540 -111.153008 252 4459ft 0kts
22-Nov-20 08:10 45.773540 -111.153008 252 4459ft 0kts
22-Nov-20 08:11 45.773540 -111.153008 252 4459ft 0kts
22-Nov-20 08:12 45.773540 -111.153008 252 4459ft 0kts
22-Nov-20 08:13 45.773540 -111.153008 252 4459ft 0kts
22-Nov-20 08:14 45.773540 -111.153008 252 4459ft 0kts
22-Nov-20 08:15 45.773540 -111.153008 252 4459ft 0kts
22-Nov-20 08:16 45.773540 -111.153008 252 4459ft 0kts
22-Nov-20 08:17 45.773540 -111.153008 252 4459ft 0kts
22-Nov-20 08:18 45.773540 -111.153008 252 4459ft 0kts
22-Nov-20 08:19 45.773540 -111.153008 252 4459ft 0kts
22-Nov-20 08:20 45.773540 -111.153008 252 4459ft 0kts
22-Nov-20 08:21 45.773540 -111.153008 252 4459ft 0kts
22-Nov-20 08:22 45.773540 -111.153008 252 4459ft 0kts
22-Nov-20 08:23 45.773540 -111.153008 252 4459ft 0kts
22-Nov-20 08:24 45.773539 -111.153015 253 4459ft 1kts
22-Nov-20 08:25 45.775009 -111.152924 22 4454ft 11kts
22-Nov-20 08:26 45.779041 -111.157976 315 4445ft 26kts
22-Nov-20 08:27 45.784816 -111.165991 314 4433ft 30kts
22-Nov-20 08:28 45.787190 -111.167601 45 4429ft 0kts
22-Nov-20 08:29 45.787282 -111.165295 135 4433ft 16kts
22-Nov-20 08:30 45.755274 -111.118628 135 5724ft 282kts
22-Nov-20 08:31 45.681918 -111.111918 243 8065ft 247kts
22-Nov-20 08:32 45.697846 -111.206103 286 10526ft 257kts
22-Nov-20 08:33 45.709036 -111.308365 279 13024ft 268kts
22-Nov-20 08:34 45.721175 -111.414671 278 15455ft 278kts
22-Nov-20 08:35 45.733733 -111.525639 277 15928ft 283kts
22-Nov-20 08:36 45.747409 -111.652046 279 16061ft 351kts
22-Nov-20 08:37 45.779606 -111.794949 283 15982ft 383kts
22-Nov-20 08:38 45.811924 -111.940594 285 15953ft 384kts
22-Nov-20 08:39 45.843835 -112.086512 285 15981ft 385kts
22-Nov-20 08:40 45.880183 -112.231036 295 15963ft 388kts
22-Nov-20 08:41 45.921563 -112.371378 293 17204ft 378kts
22-Nov-20 08:42 45.962889 -112.511833 292 17871ft 385kts
22-Nov-20 08:43 46.004371 -112.653188 291 17872ft 385kts
22-Nov-20 08:44 46.056299 -112.787410 307 18249ft 389kts
22-Nov-20 08:45 46.132330 -112.897678 309 18355ft 388kts
22-Nov-20 08:46 46.207319 -113.009431 310 18328ft 387kts
22-Nov-20 08:47 46.282094 -113.121912 311 18398ft 387kts
22-Nov-20 08:48 46.356296 -113.234205 311 18383ft 386kts
22-Nov-20 08:49 46.430245 -113.346566 311 18388ft 385kts
22-Nov-20 08:50 46.503896 -113.458925 311 18373ft 383kts
22-Nov-20 08:51 46.577190 -113.571180 311 18371ft 383kts
22-Nov-20 08:52 46.650380 -113.683713 311 18370ft 382kts
22-Nov-20 08:53 46.723179 -113.796166 311 18362ft 382kts
22-Nov-20 08:54 46.795938 -113.908993 311 18384ft 382kts
22-Nov-20 08:55 46.868163 -114.021472 311 18355ft 382kts
22-Nov-20 08:56 46.931824 -114.143460 293 18337ft 378kts
22-Nov-20 08:57 46.979747 -114.279991 296 18339ft 378kts
22-Nov-20 08:58 47.028233 -114.417009 296 18278ft 380kts
22-Nov-20 08:59 47.076591 -114.553439 296 18209ft 380kts
22-Nov-20 09:00 47.125029 -114.690316 296 18325ft 378kts
22-Nov-20 09:01 47.173198 -114.826994 295 18343ft 378kts
22-Nov-20 09:02 47.221494 -114.964610 295 18332ft 378kts
22-Nov-20 09:03 47.269336 -115.101686 295 18310ft 378kts
22-Nov-20 09:04 47.317381 -115.240079 295 18324ft 379kts
22-Nov-20 09:05 47.364999 -115.377966 294 18304ft 379kts
22-Nov-20 09:06 47.411179 -115.512360 294 17273ft 365kts
22-Nov-20 09:07 47.452328 -115.647387 285 16747ft 359kts
22-Nov-20 09:08 47.465053 -115.790955 272 16092ft 353kts
22-Nov-20 09:09 47.474442 -115.934211 272 15498ft 350kts
22-Nov-20 09:10 47.483274 -116.076692 272 14832ft 348kts
22-Nov-20 09:11 47.491641 -116.217836 272 14396ft 345kts
22-Nov-20 09:12 47.499729 -116.358265 272 13638ft 341kts
22-Nov-20 09:13 47.507520 -116.496908 272 13012ft 338kts
22-Nov-20 09:14 47.514820 -116.629064 271 12868ft 318kts
22-Nov-20 09:15 47.521857 -116.758884 271 12954ft 316kts
22-Nov-20 09:16 47.528594 -116.885964 271 12946ft 305kts
22-Nov-20 09:17 47.535052 -117.010310 271 12973ft 304kts
22-Nov-20 09:18 47.542196 -117.132286 272 11959ft 285kts
22-Nov-20 09:19 47.537222 -117.244731 255 10179ft 261kts
22-Nov-20 09:20 47.522660 -117.348819 254 8644ft 257kts
22-Nov-20 09:21 47.507843 -117.452797 255 6999ft 255kts
22-Nov-20 09:22 47.496632 -117.544290 277 5915ft 221kts
22-Nov-20 09:23 47.539999 -117.577491 31 5775ft 212kts
22-Nov-20 09:24 47.556318 -117.524345 142 4847ft 160kts
22-Nov-20 09:25 47.522280 -117.556300 255 4203ft 168kts
22-Nov-20 09:26 47.541053 -117.615728 315 3826ft 162kts
22-Nov-20 09:28 47.583039 -117.614499 355 3754ft 152kts
22-Nov-20 09:29 47.621889 -117.602915 81 3515ft 149kts
22-Nov-20 09:30 47.611770 -117.550399 89 2824ft 139kts
22-Nov-20 09:31 47.614443 -117.499587 148 3075ft 133kts
22-Nov-20 09:32 47.586974 -117.529660 236 3430ft 143kts
22-Nov-20 09:33 47.581252 -117.577096 352 3153ft 135kts
22-Nov-20 09:34 47.610896 -117.548759 46 2420ft 128kts
22-Nov-20 09:35 47.618061 -117.535923 92 2368ft 0kts
22-Nov-20 09:36 47.618060 -117.534905 75 2368ft 18kts
22-Nov-20 09:37 47.623458 -117.526471 50 2348ft 13kts
22-Nov-20 09:38 47.622883 -117.525117 86 2351ft 0kts
22-Nov-20 09:39 47.622883 -117.525117 86 2351ft 0kts
22-Nov-20 09:40 47.622883 -117.525117 86 2351ft 0kts
22-Nov-20 09:41 47.622883 -117.525117 86 2351ft 0kts
22-Nov-20 09:42 47.622883 -117.525117 86 2351ft 0kts
22-Nov-20 09:43 47.622883 -117.525117 86 2351ft 0kts
22-Nov-20 09:44 47.622883 -117.525117 86 2351ft 0kts
22-Nov-20 09:44 47.622883 -117.525117 86 2351ft 0kts
22-Nov-20 09:46 47.622883 -117.525117 86 2351ft 0kts
22-Nov-20 09:47 47.622883 -117.525117 86 2351ft 0kts
22-Nov-20 09:47 47.622883 -117.525117 86 2351ft 0kts
22-Nov-20 09:49 47.622883 -117.525117 86 2351ft 0kts

Navigation Log

Ident Type
Flight plan parsing failed, navigation log unavailable